Time;durP1;ratioP1;P1;durP2;ratioP2;P2;SDS_P1;SDS_P2;PMS_P1;PMS_P2;Temp;Humidity;BMP_temperature;BMP_pressure;BME280_temperature;BME280_humidity;BME280_pressure;Samples;Min_cycle;Max_cycle;Signal;HPM_P1;HPM_P2
2022/04/28 00:02:44;;;;;;;1.33;0.97;;;17.50;63.50;;;;;;5141974;28;20806;-68
2022/04/28 00:05:39;;;;;;;2.00;1.23;;;17.50;63.50;;;;;;5140739;28;20196;-68
2022/04/28 00:08:31;;;;;;;3.03;1.10;;;17.50;63.40;;;;;;5145152;28;20218;-67
2022/04/28 00:11:25;;;;;;;1.67;1.03;;;17.50;63.30;;;;;;5144623;28;20278;-68
2022/04/28 00:14:17;;;;;;;1.93;1.17;;;17.50;63.40;;;;;;5145022;28;20196;-68
2022/04/28 00:17:10;;;;;;;1.67;1.00;;;17.50;63.40;;;;;;5144230;28;20211;-68
2022/04/28 00:20:02;;;;;;;2.07;1.20;;;17.50;63.50;;;;;;5141348;28;20224;-68
2022/04/28 00:22:55;;;;;;;1.40;1.20;;;17.50;63.40;;;;;;5147188;28;20192;-68
2022/04/28 00:25:47;;;;;;;4.50;1.33;;;17.50;63.40;;;;;;5143751;28;20210;-68
2022/04/28 00:28:39;;;;;;;1.00;0.90;;;17.50;63.40;;;;;;5144860;28;20215;-68
2022/04/28 00:31:32;;;;;;;1.40;1.10;;;17.50;63.40;;;;;;5145040;28;20200;-68
2022/04/28 00:34:24;;;;;;;1.70;1.13;;;17.50;63.40;;;;;;5145723;28;20595;-68
2022/04/28 00:37:17;;;;;;;1.37;1.00;;;17.50;63.40;;;;;;5145214;28;20192;-66
2022/04/28 00:40:12;;;;;;;1.10;0.87;;;17.50;63.30;;;;;;5145345;28;20224;-68
2022/04/28 00:46:03;;;;;;;1.10;1.00;;;17.50;63.40;;;;;;5306717;27;20550;-69
2022/04/28 00:52:05;;;;;;;1.33;1.10;;;17.50;63.40;;;;;;5283915;28;20194;-69
2022/04/28 00:54:58;;;;;;;1.47;1.10;;;17.50;63.40;;;;;;5283581;28;20191;-69
2022/04/28 00:57:51;;;;;;;1.40;1.10;;;17.50;63.40;;;;;;5278272;28;20203;-69
2022/04/28 01:00:44;;;;;;;1.53;1.13;;;17.50;63.30;;;;;;5283837;28;20187;-69
2022/04/28 01:03:38;;;;;;;1.00;0.90;;;17.50;63.30;;;;;;5283344;28;20198;-69
2022/04/28 01:06:30;;;;;;;2.10;1.10;;;17.50;63.30;;;;;;5284032;28;20186;-69
2022/04/28 01:09:22;;;;;;;1.47;0.90;;;17.50;63.30;;;;;;5283171;28;20648;-69
2022/04/28 01:12:16;;;;;;;1.57;1.13;;;17.50;63.40;;;;;;5283373;28;20217;-68
2022/04/28 01:15:09;;;;;;;2.43;1.20;;;17.50;63.30;;;;;;5283887;28;20182;-70
2022/04/28 01:18:01;;;;;;;2.17;1.47;;;17.50;63.40;;;;;;5282345;28;20207;-69
2022/04/28 01:20:54;;;;;;;1.43;0.97;;;17.50;63.30;;;;;;5281832;28;20191;-69
2022/04/28 01:23:48;;;;;;;2.53;1.30;;;17.50;63.20;;;;;;5284390;28;20574;-69
2022/04/28 01:26:41;;;;;;;1.50;1.10;;;17.50;63.20;;;;;;5280823;28;20187;-70
2022/04/28 01:29:34;;;;;;;3.03;1.30;;;17.50;63.20;;;;;;5276559;28;20219;-70
2022/04/28 01:32:27;;;;;;;2.13;1.20;;;17.50;63.30;;;;;;5283327;28;20191;-69
2022/04/28 01:35:19;;;;;;;1.77;0.90;;;17.50;63.20;;;;;;5283026;28;20202;-68
2022/04/28 01:38:11;;;;;;;2.57;1.40;;;17.50;63.10;;;;;;5283257;28;20191;-69
2022/04/28 01:41:05;;;;;;;1.30;0.90;;;17.50;63.20;;;;;;5271441;28;20664;-68
2022/04/28 01:43:57;;;;;;;1.00;0.90;;;17.50;63.20;;;;;;5275266;28;20573;-69
2022/04/28 01:46:49;;;;;;;1.37;1.10;;;17.50;63.20;;;;;;5282575;28;20701;-69
2022/04/28 01:49:41;;;;;;;0.70;0.70;;;17.50;63.10;;;;;;5283262;28;20218;-69
2022/04/28 01:55:48;;;;;;;1.63;1.30;;;17.50;63.20;;;;;;5227329;28;20202;-69
2022/04/28 01:58:42;;;;;;;1.53;1.17;;;17.50;63.10;;;;;;5269692;28;20215;-69
2022/04/28 02:01:34;;;;;;;1.73;1.30;;;17.50;63.20;;;;;;5267807;28;20191;-69
2022/04/28 02:04:26;;;;;;;1.20;1.10;;;17.50;63.10;;;;;;5266954;28;20226;-70
2022/04/28 02:07:18;;;;;;;1.33;1.13;;;17.50;63.20;;;;;;5268502;28;20571;-68
2022/04/28 02:10:11;;;;;;;1.30;1.10;;;17.50;63.10;;;;;;5268728;28;20591;-69
2022/04/28 02:13:03;;;;;;;1.57;1.00;;;17.50;63.10;;;;;;5267363;28;20332;-69
2022/04/28 02:15:56;;;;;;;2.17;1.03;;;17.50;63.20;;;;;;5267918;28;20192;-69
2022/04/28 02:18:48;;;;;;;1.60;1.13;;;17.50;63.10;;;;;;5267599;28;20208;-69
2022/04/28 02:21:40;;;;;;;2.53;1.37;;;17.50;63.10;;;;;;5268510;28;20570;-69
2022/04/28 02:24:32;;;;;;;0.83;0.83;;;17.50;63.10;;;;;;5267741;28;20216;-69
2022/04/28 02:27:25;;;;;;;1.23;0.83;;;17.50;63.10;;;;;;5265270;28;20192;-69
2022/04/28 02:30:17;;;;;;;2.07;1.20;;;17.50;63.00;;;;;;5255218;28;20216;-68
2022/04/28 02:33:11;;;;;;;1.60;0.90;;;17.50;63.10;;;;;;5266320;28;20192;-69
2022/04/28 02:36:03;;;;;;;1.00;0.90;;;17.50;63.10;;;;;;5259139;28;20722;-69
2022/04/28 02:38:55;;;;;;;1.80;1.10;;;17.50;63.10;;;;;;5247772;28;20569;-70
2022/04/28 02:41:48;;;;;;;1.77;0.97;;;17.50;63.10;;;;;;5253084;28;20275;-69
2022/04/28 02:44:40;;;;;;;1.53;1.37;;;17.50;63.00;;;;;;5266998;28;20606;-69
2022/04/28 02:47:32;;;;;;;1.33;1.13;;;17.50;63.00;;;;;;5268312;28;20192;-70
2022/04/28 02:50:25;;;;;;;1.60;1.20;;;17.50;63.00;;;;;;5266740;28;20211;-69
2022/04/28 02:53:17;;;;;;;1.30;1.10;;;17.50;63.00;;;;;;5252875;28;20565;-69
2022/04/28 02:56:09;;;;;;;1.30;0.90;;;17.50;62.90;;;;;;5267879;28;20196;-69
2022/04/28 02:59:02;;;;;;;1.00;0.80;;;17.50;62.90;;;;;;5266955;28;20214;-69
2022/04/28 03:01:54;;;;;;;1.57;1.10;;;17.50;62.80;;;;;;5247892;28;20218;-69
2022/04/28 03:04:46;;;;;;;1.90;1.10;;;17.50;62.90;;;;;;5267784;28;20598;-69
2022/04/28 03:11:00;;;;;;;0.93;0.90;;;17.50;62.90;;;;;;5267300;28;20196;-69
2022/04/28 03:13:52;;;;;;;2.07;1.30;;;17.50;62.90;;;;;;5266501;28;20200;-69
2022/04/28 03:16:44;;;;;;;1.80;1.20;;;17.50;62.80;;;;;;5266657;28;20206;-70
2022/04/28 03:19:36;;;;;;;1.43;1.07;;;17.50;62.90;;;;;;5265881;28;20208;-69
2022/04/28 03:22:29;;;;;;;1.73;1.10;;;17.50;62.80;;;;;;5264757;28;20195;-69
2022/04/28 03:25:22;;;;;;;2.13;1.10;;;17.50;62.90;;;;;;5267167;28;20212;-68
2022/04/28 03:28:14;;;;;;;1.27;0.90;;;17.50;62.80;;;;;;5265883;28;20198;-69
2022/04/28 03:31:08;;;;;;;1.47;0.97;;;17.50;62.90;;;;;;5266195;28;20244;-69
2022/04/28 03:34:00;;;;;;;3.20;1.10;;;17.50;62.80;;;;;;5265996;28;20210;-70
2022/04/28 03:36:52;;;;;;;1.20;1.00;;;17.50;62.80;;;;;;5266969;28;20237;-69
2022/04/28 03:39:44;;;;;;;2.30;1.20;;;17.50;62.70;;;;;;5266543;28;20633;-69
2022/04/28 03:42:38;;;;;;;1.77;1.27;;;17.50;62.70;;;;;;5262395;28;20204;-69
2022/04/28 03:45:30;;;;;;;1.80;1.20;;;17.50;62.70;;;;;;5259419;28;20211;-70
2022/04/28 03:48:22;;;;;;;1.90;1.00;;;17.50;62.50;;;;;;5263201;28;20210;-68
2022/04/28 03:51:14;;;;;;;1.93;1.23;;;17.50;62.50;;;;;;5266990;28;20199;-69
2022/04/28 03:54:06;;;;;;;2.40;1.10;;;17.50;62.40;;;;;;5266012;28;20198;-69
2022/04/28 03:56:58;;;;;;;1.97;1.00;;;17.50;62.50;;;;;;5266248;28;20724;-69
2022/04/28 03:59:52;;;;;;;1.10;1.00;;;17.60;62.50;;;;;;5273917;22;20725;-61
2022/04/28 04:02:44;;;;;;;0.80;0.80;;;17.60;62.40;;;;;;5250638;28;20273;-62
2022/04/28 04:05:36;;;;;;;1.60;0.90;;;17.60;62.50;;;;;;5259042;28;20212;-61
2022/04/28 04:08:28;;;;;;;2.03;1.00;;;17.60;62.40;;;;;;5256220;28;20745;-62
2022/04/28 04:11:20;;;;;;;1.77;1.13;;;17.60;62.50;;;;;;5234416;28;20610;-62
2022/04/28 04:14:12;;;;;;;1.47;0.97;;;17.60;62.40;;;;;;5236733;28;20199;-62
2022/04/28 04:17:06;;;;;;;1.47;0.90;;;17.50;62.40;;;;;;5237733;28;20312;-61
2022/04/28 04:19:58;;;;;;;1.23;0.90;;;17.60;62.40;;;;;;5235304;28;20217;-62
2022/04/28 04:22:50;;;;;;;1.40;1.10;;;17.60;62.50;;;;;;5231696;28;20197;-63
2022/04/28 04:25:42;;;;;;;0.93;0.80;;;17.60;62.40;;;;;;5225619;28;20213;-62
2022/04/28 04:28:34;;;;;;;1.40;1.00;;;17.60;62.40;;;;;;5226434;28;20189;-62
2022/04/28 04:34:37;;;;;;;1.50;0.80;;;17.60;62.40;;;;;;5225014;28;20610;-63
2022/04/28 04:37:29;;;;;;;1.30;1.00;;;17.60;62.40;;;;;;5227787;28;20200;-61
2022/04/28 04:40:22;;;;;;;1.40;1.10;;;17.60;62.40;;;;;;5242169;28;20220;-63
2022/04/28 04:43:14;;;;;;;1.93;1.10;;;17.60;62.50;;;;;;5244187;28;20196;-62
2022/04/28 04:46:06;;;;;;;1.47;1.03;;;17.60;62.40;;;;;;5245224;28;20219;-62
2022/04/28 04:48:58;;;;;;;1.47;1.10;;;17.60;62.50;;;;;;5244066;28;20221;-61
2022/04/28 04:51:52;;;;;;;1.20;1.07;;;17.60;62.40;;;;;;5234791;28;20193;-63
2022/04/28 04:54:44;;;;;;;1.43;1.00;;;17.60;62.40;;;;;;5247257;28;20208;-62
2022/04/28 04:57:36;;;;;;;1.13;0.93;;;17.60;62.40;;;;;;5226739;28;20193;-63
2022/04/28 05:00:28;;;;;;;1.30;1.00;;;17.60;62.30;;;;;;5233145;28;20229;-61
2022/04/28 05:03:20;;;;;;;1.43;0.80;;;17.60;62.30;;;;;;5236216;28;20199;-62
2022/04/28 05:06:12;;;;;;;1.07;0.90;;;17.60;62.30;;;;;;5245513;28;20235;-62
2022/04/28 05:09:06;;;;;;;2.10;1.17;;;17.60;62.20;;;;;;5244553;28;20220;-62
2022/04/28 05:11:58;;;;;;;1.00;0.90;;;17.60;62.40;;;;;;5235995;28;20211;-62
2022/04/28 05:14:50;;;;;;;1.70;1.10;;;17.60;62.30;;;;;;5225243;28;20204;-62
2022/04/28 05:17:42;;;;;;;3.03;1.20;;;17.60;62.30;;;;;;5232009;28;20193;-62
2022/04/28 05:20:34;;;;;;;2.47;1.00;;;17.60;62.30;;;;;;5244632;28;20216;-62
2022/04/28 05:23:26;;;;;;;1.73;1.10;;;17.60;62.20;;;;;;5237533;28;20189;-62
2022/04/28 05:26:19;;;;;;;1.43;1.00;;;17.60;62.20;;;;;;5245125;28;20687;-62
2022/04/28 05:29:11;;;;;;;2.10;0.80;;;17.60;62.20;;;;;;5243426;28;20212;-62
2022/04/28 05:32:04;;;;;;;2.83;1.00;;;17.60;62.20;;;;;;5235699;28;20200;-63
2022/04/28 05:34:56;;;;;;;2.17;1.20;;;17.60;62.20;;;;;;5228867;28;20200;-63
2022/04/28 05:37:48;;;;;;;3.57;1.27;;;17.60;62.20;;;;;;5229101;28;20271;-63
2022/04/28 05:40:41;;;;;;;3.50;0.97;;;17.60;62.10;;;;;;5229016;28;20577;-63
2022/04/28 05:46:45;;;;;;;1.80;1.10;;;17.60;62.10;;;;;;5240018;28;20208;-62
2022/04/28 05:49:38;;;;;;;1.87;1.27;;;17.60;62.20;;;;;;5235867;28;20209;-64
2022/04/28 05:52:30;;;;;;;1.87;1.30;;;17.60;62.20;;;;;;5239450;28;20189;-63
2022/04/28 05:55:22;;;;;;;2.67;1.10;;;17.50;62.20;;;;;;5238731;28;20181;-64
2022/04/28 05:58:14;;;;;;;1.50;1.20;;;17.60;62.20;;;;;;5241693;28;20675;-63
2022/04/28 06:01:08;;;;;;;2.60;1.30;;;17.60;62.20;;;;;;5228692;28;20688;-63
2022/04/28 06:04:00;;;;;;;1.00;0.90;;;17.60;62.20;;;;;;5247627;28;20201;-62
2022/04/28 06:06:52;;;;;;;1.57;1.20;;;17.60;62.20;;;;;;5237445;28;20225;-61
2022/04/28 06:09:45;;;;;;;1.33;1.03;;;17.60;62.00;;;;;;5247963;28;20735;-62
2022/04/28 06:12:38;;;;;;;3.27;1.40;;;17.60;62.20;;;;;;5246355;28;20363;-61
2022/04/28 06:15:30;;;;;;;1.40;1.10;;;17.60;62.10;;;;;;5227997;28;20195;-62
2022/04/28 06:18:23;;;;;;;1.03;0.90;;;17.60;62.20;;;;;;5227869;28;20205;-62
2022/04/28 06:21:15;;;;;;;2.07;1.23;;;17.60;62.30;;;;;;5240421;28;20193;-62
2022/04/28 06:24:08;;;;;;;2.60;1.10;;;17.60;62.60;;;;;;5248098;28;20682;-64
2022/04/28 06:27:00;;;;;;;1.83;1.20;;;17.60;62.60;;;;;;5245503;28;20591;-63
2022/04/28 06:29:52;;;;;;;2.67;1.10;;;17.60;62.50;;;;;;5245916;28;20228;-64
2022/04/28 06:32:44;;;;;;;3.27;1.27;;;17.60;62.40;;;;;;5241789;28;20215;-64
2022/04/28 06:35:38;;;;;;;2.00;1.20;;;17.60;62.50;;;;;;5247398;28;20192;-64
2022/04/28 06:38:30;;;;;;;1.63;1.30;;;17.60;62.50;;;;;;5232381;28;20194;-64
2022/04/28 06:41:22;;;;;;;1.87;1.30;;;17.60;62.60;;;;;;5232320;28;20191;-64
2022/04/28 06:44:14;;;;;;;4.30;1.40;;;17.60;62.60;;;;;;5229748;28;20208;-64
2022/04/28 06:47:07;;;;;;;2.47;1.10;;;17.60;62.70;;;;;;5236381;28;20219;-64
2022/04/28 06:49:59;;;;;;;3.53;1.33;;;17.60;62.70;;;;;;5227599;28;20213;-64
2022/04/28 06:52:52;;;;;;;2.10;1.17;;;17.60;62.70;;;;;;5248361;28;20330;-64
2022/04/28 06:55:44;;;;;;;2.73;1.03;;;17.60;62.70;;;;;;5247420;28;20188;-64
2022/04/28 06:58:37;;;;;;;1.30;1.10;;;17.60;62.70;;;;;;5247234;28;20199;-64
2022/04/28 07:01:29;;;;;;;2.80;1.10;;;17.60;62.80;;;;;;5246877;28;20670;-64
2022/04/28 07:04:22;;;;;;;1.10;0.93;;;17.60;62.80;;;;;;5237329;28;20694;-64
2022/04/28 07:07:14;;;;;;;2.03;1.30;;;17.60;62.80;;;;;;5226663;28;20217;-64
2022/04/28 07:10:09;;;;;;;4.97;1.30;;;17.60;62.80;;;;;;5227573;28;20216;-64
2022/04/28 07:13:01;;;;;;;1.73;1.00;;;17.60;62.80;;;;;;5226405;28;20201;-64
2022/04/28 07:15:54;;;;;;;2.17;1.30;;;17.60;62.80;;;;;;5232283;28;20222;-64
2022/04/28 07:18:46;;;;;;;2.17;1.20;;;17.60;62.80;;;;;;5226402;28;20197;-64
2022/04/28 07:21:38;;;;;;;1.60;1.10;;;17.60;62.90;;;;;;5228042;28;20672;-64
2022/04/28 07:24:30;;;;;;;2.00;1.10;;;17.60;62.90;;;;;;5226819;28;20193;-64
2022/04/28 07:27:23;;;;;;;1.87;0.90;;;17.60;62.90;;;;;;5226491;28;20224;-64
2022/04/28 07:30:16;;;;;;;1.50;0.93;;;17.60;62.90;;;;;;5241836;28;20220;-61
2022/04/28 07:33:08;;;;;;;1.30;0.90;;;17.60;62.90;;;;;;5240779;28;20197;-61
2022/04/28 07:36:00;;;;;;;1.70;0.90;;;17.60;63.00;;;;;;5240703;28;20192;-61
2022/04/28 07:38:52;;;;;;;2.77;1.00;;;17.60;63.00;;;;;;5226722;28;20195;-61
2022/04/28 07:41:44;;;;;;;5.13;1.33;;;17.60;63.00;;;;;;5233326;28;20204;-62
2022/04/28 07:44:38;;;;;;;3.13;1.37;;;17.60;63.40;;;;;;5232845;28;20196;-63
2022/04/28 07:47:30;;;;;;;3.53;1.30;;;17.60;62.80;;;;;;5243339;28;20854;-62
2022/04/28 07:50:22;;;;;;;2.80;1.27;;;17.70;62.90;;;;;;5246018;28;20235;-62
2022/04/28 07:53:14;;;;;;;3.47;1.73;;;17.60;62.90;;;;;;5236161;28;20189;-62
2022/04/28 07:56:14;;;;;;;2.50;1.27;;;17.60;63.00;;;;;;5233419;28;20210;-62
2022/04/28 07:59:07;;;;;;;1.90;1.03;;;17.60;63.00;;;;;;5244764;28;20240;-63
2022/04/28 08:02:02;;;;;;;2.37;1.20;;;17.60;63.10;;;;;;5242727;28;20326;-62
2022/04/28 08:04:55;;;;;;;1.83;0.87;;;17.60;63.10;;;;;;5229627;28;20193;-61
2022/04/28 08:07:47;;;;;;;2.30;1.23;;;17.60;63.30;;;;;;5238556;28;20212;-61
2022/04/28 08:10:39;;;;;;;3.60;1.30;;;17.60;63.30;;;;;;5243052;28;20212;-61
2022/04/28 08:13:32;;;;;;;2.70;1.30;;;17.60;63.20;;;;;;5244942;28;20200;-62
2022/04/28 08:16:24;;;;;;;3.63;1.40;;;17.70;63.30;;;;;;5240924;28;20543;-62
2022/04/28 08:19:18;;;;;;;2.47;1.30;;;17.70;63.20;;;;;;5242094;28;20246;-62
2022/04/28 08:22:11;;;;;;;2.03;1.20;;;17.70;63.00;;;;;;5227021;28;20280;-62
2022/04/28 08:25:03;;;;;;;2.53;1.30;;;17.60;63.60;;;;;;5242544;28;20203;-62
2022/04/28 08:27:55;;;;;;;2.40;1.10;;;17.60;63.00;;;;;;5241911;28;20234;-61
2022/04/28 08:30:47;;;;;;;2.80;1.30;;;17.60;63.00;;;;;;5245543;28;20571;-61
2022/04/28 08:33:39;;;;;;;3.90;1.20;;;17.60;63.10;;;;;;5245589;28;20244;-61
2022/04/28 08:36:33;;;;;;;2.00;1.07;;;17.60;63.10;;;;;;5245386;28;20188;-62
2022/04/28 08:39:25;;;;;;;3.07;1.30;;;17.60;63.10;;;;;;5243678;28;20208;-62
2022/04/28 08:42:21;;;;;;;3.27;1.13;;;17.60;63.10;;;;;;5242825;28;20556;-61
2022/04/28 08:45:18;;;;;;;2.77;1.30;;;17.60;63.10;;;;;;5232716;28;20572;-62
2022/04/28 08:48:11;;;;;;;1.50;1.03;;;17.60;63.20;;;;;;5234858;28;20212;-61
2022/04/28 08:51:04;;;;;;;3.80;1.13;;;17.60;63.20;;;;;;5237398;28;20217;-61
2022/04/28 08:53:57;;;;;;;3.30;1.20;;;17.60;63.00;;;;;;5225375;28;20193;-61
2022/04/28 08:56:51;;;;;;;3.10;1.60;;;17.60;62.70;;;;;;5225082;28;20212;-61
2022/04/28 08:59:44;;;;;;;2.97;1.47;;;17.60;62.30;;;;;;5237027;28;20231;-61
2022/04/28 09:02:36;;;;;;;2.90;1.27;;;17.60;62.40;;;;;;5231988;28;20272;-60
2022/04/28 09:05:33;;;;;;;1.90;1.20;;;17.60;62.50;;;;;;5224912;28;20201;-61
2022/04/28 09:08:25;;;;;;;3.60;1.10;;;17.60;62.50;;;;;;5233752;28;20200;-61
2022/04/28 09:11:19;;;;;;;2.93;1.47;;;17.60;62.40;;;;;;5248908;28;20208;-61
2022/04/28 09:14:14;;;;;;;2.93;1.30;;;17.60;62.40;;;;;;5240310;28;20256;-60
2022/04/28 09:17:06;;;;;;;4.17;1.50;;;17.60;62.30;;;;;;5242602;28;20663;-61
2022/04/28 09:20:00;;;;;;;5.87;1.57;;;17.60;62.50;;;;;;5240431;28;20700;-61
2022/04/28 09:22:53;;;;;;;2.50;1.10;;;17.60;62.40;;;;;;5228864;28;20201;-61
2022/04/28 09:25:46;;;;;;;3.97;1.50;;;17.50;62.20;;;;;;5229197;28;20197;-61
2022/04/28 09:28:41;;;;;;;2.53;1.30;;;17.60;62.30;;;;;;5232919;28;20192;-61
2022/04/28 09:31:38;;;;;;;4.27;1.37;;;17.50;62.40;;;;;;5249051;28;20218;-62
2022/04/28 09:34:30;;;;;;;1.63;1.13;;;17.50;62.50;;;;;;5245383;28;20572;-61
2022/04/28 09:37:25;;;;;;;2.03;1.10;;;17.60;62.50;;;;;;5248956;28;20243;-61
2022/04/28 09:43:27;;;;;;;3.57;1.70;;;17.60;61.70;;;;;;5227865;28;20185;-61
2022/04/28 09:46:23;;;;;;;2.70;1.27;;;17.60;61.80;;;;;;5228001;28;20684;-62
2022/04/28 09:49:18;;;;;;;1.63;1.20;;;17.60;61.80;;;;;;5246885;28;20228;-62
2022/04/28 09:52:10;;;;;;;3.37;1.50;;;17.60;61.90;;;;;;5236987;28;20201;-62
2022/04/28 09:55:04;;;;;;;4.40;1.50;;;17.60;61.90;;;;;;5227858;28;20185;-61
2022/04/28 09:57:56;;;;;;;4.23;1.63;;;17.60;62.00;;;;;;5241022;28;20200;-62
2022/04/28 10:00:48;;;;;;;2.40;1.43;;;17.60;61.90;;;;;;5221786;22;20596;-62
2022/04/28 10:03:44;;;;;;;2.43;1.20;;;17.60;62.00;;;;;;5182039;28;20202;-64
2022/04/28 10:06:36;;;;;;;3.60;1.40;;;17.60;62.00;;;;;;5187150;28;20218;-67
2022/04/28 10:09:31;;;;;;;1.80;1.30;;;17.60;62.00;;;;;;5179008;28;20219;-68
2022/04/28 10:12:25;;;;;;;2.80;1.30;;;17.60;62.20;;;;;;5179519;28;20195;-68
2022/04/28 10:15:18;;;;;;;3.37;1.40;;;17.60;62.20;;;;;;5183464;28;20697;-68
2022/04/28 10:18:14;;;;;;;3.30;1.40;;;17.60;62.10;;;;;;5185809;28;20201;-69
2022/04/28 10:21:12;;;;;;;3.10;1.43;;;17.60;62.00;;;;;;5184199;28;20226;-68
2022/04/28 10:33:41;;;;;;;2.47;1.13;;;17.60;61.80;;;;;;5188094;28;20226;-68
2022/04/28 10:36:51;;;;;;;2.80;1.13;;;17.60;62.10;;;;;;5184967;28;20191;-68
2022/04/28 10:39:45;;;;;;;3.00;1.17;;;17.60;62.10;;;;;;5184807;28;20202;-69
2022/04/28 10:42:56;;;;;;;3.47;1.60;;;17.60;62.10;;;;;;5183569;28;20277;-68
2022/04/28 10:45:49;;;;;;;3.40;1.10;;;17.60;62.00;;;;;;5183612;28;20190;-68
2022/04/28 10:48:43;;;;;;;2.20;1.10;;;17.60;62.00;;;;;;5184187;28;20385;-68
2022/04/28 10:51:37;;;;;;;3.30;1.20;;;17.60;62.00;;;;;;5183209;28;20205;-68
2022/04/28 10:54:43;;;;;;;1.60;0.87;;;17.60;62.00;;;;;;5181495;28;20201;-67
2022/04/28 10:57:38;;;;;;;2.80;1.07;;;17.60;62.00;;;;;;5183940;28;20199;-69
2022/04/28 11:00:34;;;;;;;2.37;0.90;;;17.60;62.00;;;;;;5182189;28;20697;-68
2022/04/28 11:03:46;;;;;;;2.67;1.20;;;17.60;62.00;;;;;;5182136;28;20206;-68
2022/04/28 11:06:48;;;;;;;2.20;1.23;;;17.60;62.00;;;;;;5182770;28;20198;-67
2022/04/28 11:09:41;;;;;;;1.83;1.20;;;17.60;62.00;;;;;;5184155;28;20717;-67
2022/04/28 11:12:35;;;;;;;1.80;1.07;;;17.70;62.50;;;;;;5185187;28;20209;-68
2022/04/28 11:15:27;;;;;;;2.30;0.90;;;17.60;62.00;;;;;;5165541;28;20241;-67
2022/04/28 11:18:20;;;;;;;1.37;1.00;;;17.60;62.00;;;;;;5169354;28;20196;-67
2022/04/28 11:21:13;;;;;;;2.83;1.33;;;17.70;62.00;;;;;;5183861;28;20305;-67
2022/04/28 11:24:07;;;;;;;3.50;1.20;;;17.70;62.00;;;;;;5165498;28;20195;-68
2022/04/28 11:27:00;;;;;;;2.10;1.30;;;17.70;62.00;;;;;;5168986;28;20225;-67
2022/04/28 11:29:52;;;;;;;1.50;0.90;;;17.70;62.00;;;;;;5182746;28;20214;-68
2022/04/28 11:32:51;;;;;;;1.13;0.87;;;17.70;62.00;;;;;;5184994;28;20201;-67
2022/04/28 11:35:43;;;;;;;1.17;1.00;;;17.70;62.00;;;;;;5164002;28;20188;-68
2022/04/28 11:38:35;;;;;;;2.20;1.23;;;17.70;62.00;;;;;;5177933;28;20218;-68
2022/04/28 11:41:34;;;;;;;3.33;1.13;;;17.70;62.00;;;;;;5183616;28;20191;-65
2022/04/28 11:44:26;;;;;;;2.63;1.10;;;17.70;61.80;;;;;;5185032;28;20194;-64
2022/04/28 11:47:19;;;;;;;2.27;1.20;;;17.70;61.90;;;;;;5183985;28;20282;-65
2022/04/28 11:50:20;;;;;;;2.67;1.00;;;17.70;61.90;;;;;;5182985;28;20222;-64
2022/04/28 11:53:12;;;;;;;1.93;1.07;;;17.70;61.90;;;;;;5182451;28;20194;-65
2022/04/28 11:56:15;;;;;;;1.73;0.90;;;17.70;62.00;;;;;;5183803;28;20639;-65
2022/04/28 11:59:10;;;;;;;1.50;0.90;;;17.70;62.00;;;;;;5179286;28;20190;-66
2022/04/28 12:02:02;;;;;;;1.57;0.90;;;17.70;62.00;;;;;;5179821;28;20244;-65
2022/04/28 12:04:54;;;;;;;2.10;1.00;;;17.70;62.00;;;;;;5182124;28;20581;-65
2022/04/28 12:07:51;;;;;;;1.20;0.80;;;17.70;62.10;;;;;;5183699;28;20215;-66
2022/04/28 12:20:16;;;;;;;1.10;0.70;;;17.70;62.20;;;;;;5178153;28;20225;-66
2022/04/28 12:23:26;;;;;;;2.03;0.90;;;17.70;62.30;;;;;;5183483;28;20194;-66
2022/04/28 12:26:21;;;;;;;1.23;1.07;;;17.70;62.30;;;;;;5183627;28;20277;-66
2022/04/28 12:29:16;;;;;;;1.13;0.80;;;17.70;62.40;;;;;;5183595;28;20547;-65
2022/04/28 12:32:10;;;;;;;1.53;0.87;;;17.70;62.40;;;;;;5182694;28;20206;-67
2022/04/28 12:35:06;;;;;;;1.43;0.93;;;17.70;62.40;;;;;;5163667;28;20201;-66
2022/04/28 12:38:02;;;;;;;3.33;0.90;;;17.80;62.50;;;;;;5177440;28;20203;-65
2022/04/28 12:40:55;;;;;;;1.23;0.70;;;17.80;62.50;;;;;;5183032;28;20229;-66
2022/04/28 12:43:49;;;;;;;1.53;0.87;;;17.70;62.40;;;;;;5182614;28;20202;-67
2022/04/28 12:46:44;;;;;;;2.83;0.83;;;17.80;62.60;;;;;;5184223;28;20674;-66
2022/04/28 12:49:47;;;;;;;1.40;1.00;;;17.80;62.60;;;;;;5182952;28;20210;-66
2022/04/28 12:52:39;;;;;;;1.33;0.70;;;17.70;62.60;;;;;;5178541;28;20189;-66
2022/04/28 12:55:36;;;;;;;1.95;0.90;;;17.70;62.60;;;;;;5183187;28;20421;-65
2022/04/28 12:58:28;;;;;;;1.60;1.10;;;17.80;62.30;;;;;;5183606;28;20673;-66
2022/04/28 13:01:21;;;;;;;2.17;0.97;;;17.80;62.30;;;;;;5178356;28;20226;-68
2022/04/28 13:04:15;;;;;;;2.67;0.90;;;17.80;62.30;;;;;;5181873;28;20199;-67
2022/04/28 13:07:10;;;;;;;1.47;0.83;;;17.80;62.50;;;;;;5183866;28;20206;-68
2022/04/28 13:10:03;;;;;;;1.83;1.00;;;17.80;62.60;;;;;;5181663;28;20222;-67
2022/04/28 13:12:55;;;;;;;1.50;0.93;;;17.80;62.60;;;;;;5181013;28;20194;-67
2022/04/28 13:15:48;;;;;;;0.67;0.60;;;17.80;62.70;;;;;;5183275;28;20294;-67
2022/04/28 13:18:40;;;;;;;0.93;0.83;;;17.80;62.70;;;;;;5180882;28;20194;-68
2022/04/28 13:21:32;;;;;;;1.20;0.80;;;17.80;62.70;;;;;;5181859;28;20205;-67
2022/04/28 13:24:26;;;;;;;1.83;0.77;;;17.80;62.80;;;;;;5182194;28;20206;-68
2022/04/28 13:27:18;;;;;;;1.83;0.90;;;17.80;62.80;;;;;;5182051;28;20203;-69
2022/04/28 13:30:13;;;;;;;1.73;0.97;;;17.70;62.90;;;;;;5174753;28;20791;-69
2022/04/28 13:33:06;;;;;;;1.60;0.90;;;17.80;62.90;;;;;;5170102;28;20193;-68
2022/04/28 13:35:58;;;;;;;0.60;0.60;;;17.80;62.90;;;;;;5180879;28;20197;-69
2022/04/28 13:38:50;;;;;;;1.87;0.80;;;17.80;63.00;;;;;;5180429;28;20199;-69
2022/04/28 13:41:46;;;;;;;1.37;0.80;;;17.80;63.00;;;;;;5183799;28;20195;-69
2022/04/28 13:44:39;;;;;;;0.90;0.60;;;17.80;63.00;;;;;;5179214;28;20197;-68
2022/04/28 13:47:31;;;;;;;1.03;0.60;;;17.80;63.10;;;;;;5181774;28;20210;-69
2022/04/28 13:50:24;;;;;;;1.00;0.60;;;17.70;63.60;;;;;;5181832;28;20674;-68
2022/04/28 13:53:17;;;;;;;1.20;1.03;;;17.80;63.10;;;;;;5185125;28;20569;-69
2022/04/28 13:56:10;;;;;;;2.30;0.83;;;17.80;63.20;;;;;;5186282;28;20191;-68
2022/04/28 13:59:03;;;;;;;1.60;0.70;;;17.70;63.10;;;;;;5180081;28;20203;-68
2022/04/28 14:01:55;;;;;;;1.13;0.80;;;17.80;63.20;;;;;;5186706;28;20623;-69
2022/04/28 14:04:47;;;;;;;3.27;1.00;;;17.70;63.20;;;;;;5183569;28;20203;-69
2022/04/28 14:07:40;;;;;;;1.07;0.93;;;17.70;63.20;;;;;;5185322;28;20217;-69
2022/04/28 14:10:32;;;;;;;1.63;0.77;;;17.80;63.30;;;;;;5185948;28;20293;-68
2022/04/28 14:13:24;;;;;;;2.00;0.70;;;17.70;63.30;;;;;;5185093;28;20191;-67
2022/04/28 14:16:18;;;;;;;2.27;0.80;;;17.80;63.40;;;;;;5185630;28;20395;-68
2022/04/28 14:19:10;;;;;;;1.30;0.90;;;17.70;63.30;;;;;;5184424;28;20577;-67
2022/04/28 14:22:04;;;;;;;0.93;0.60;;;17.70;63.30;;;;;;5168381;28;20207;-68
2022/04/28 14:24:56;;;;;;;0.70;0.60;;;17.80;63.40;;;;;;5181727;28;20194;-68
2022/04/28 14:27:49;;;;;;;0.70;0.70;;;17.70;63.30;;;;;;5186743;28;20301;-69
2022/04/28 14:30:42;;;;;;;1.47;0.80;;;17.70;63.40;;;;;;5171012;28;20716;-68
2022/04/28 14:33:35;;;;;;;1.77;0.90;;;17.80;63.50;;;;;;5185227;28;20211;-67
2022/04/28 14:36:27;;;;;;;1.47;0.93;;;17.70;63.50;;;;;;5183725;28;20223;-67
2022/04/28 14:39:20;;;;;;;1.73;0.93;;;17.70;63.50;;;;;;5185071;28;20690;-66
2022/04/28 14:42:12;;;;;;;2.03;1.17;;;17.70;63.50;;;;;;5184888;28;20589;-67
2022/04/28 14:45:05;;;;;;;2.83;1.70;;;17.80;63.60;;;;;;5186262;28;20203;-67
2022/04/28 14:47:57;;;;;;;2.13;1.57;;;17.70;63.50;;;;;;5185833;28;20601;-67
2022/04/28 14:54:00;;;;;;;3.10;1.97;;;17.70;63.60;;;;;;5185193;28;20186;-67
2022/04/28 14:56:53;;;;;;;3.03;1.90;;;17.80;63.70;;;;;;5186366;28;20578;-67
2022/04/28 14:59:45;;;;;;;2.40;1.90;;;17.70;63.60;;;;;;5185383;28;20223;-67
2022/04/28 15:02:37;;;;;;;2.10;1.67;;;17.70;63.70;;;;;;5176824;28;20210;-66
2022/04/28 15:05:31;;;;;;;2.03;1.83;;;17.70;63.70;;;;;;5184602;28;20195;-68
2022/04/28 15:08:24;;;;;;;2.10;1.90;;;17.70;63.70;;;;;;5185538;28;20345;-67
2022/04/28 15:11:18;;;;;;;4.13;1.87;;;17.70;63.70;;;;;;5184350;28;20225;-67
2022/04/28 15:14:10;;;;;;;3.00;1.80;;;17.70;63.70;;;;;;5186146;28;20201;-67
2022/04/28 15:17:02;;;;;;;2.67;1.83;;;17.70;63.70;;;;;;5184227;28;20571;-67
2022/04/28 15:19:54;;;;;;;5.13;2.10;;;17.70;63.70;;;;;;5165027;28;20622;-67
2022/04/28 15:22:47;;;;;;;2.23;2.00;;;17.70;63.70;;;;;;5180826;28;20210;-67
2022/04/28 15:25:41;;;;;;;3.07;2.53;;;17.70;63.70;;;;;;5184665;28;20590;-68
2022/04/28 15:28:33;;;;;;;2.60;2.40;;;17.70;63.70;;;;;;5183837;28;20210;-67
2022/04/28 15:31:26;;;;;;;6.60;2.87;;;17.70;63.70;;;;;;5184613;28;20597;-67
2022/04/28 15:34:18;;;;;;;3.00;2.70;;;17.70;63.70;;;;;;5184950;28;20285;-67
2022/04/28 15:37:10;;;;;;;4.33;3.00;;;17.70;63.70;;;;;;5184973;28;20202;-67
2022/04/28 15:40:04;;;;;;;3.50;3.20;;;17.70;63.70;;;;;;5184595;28;20207;-67
2022/04/28 15:42:58;;;;;;;5.67;3.73;;;17.70;63.80;;;;;;5184439;28;20577;-67
2022/04/28 15:45:50;;;;;;;5.50;3.90;;;17.70;63.80;;;;;;5184427;28;20198;-67
2022/04/28 15:48:42;;;;;;;5.63;4.27;;;17.70;63.80;;;;;;5189766;28;20212;-67